Flight Track Log - Related Links

Times and Time Zones

All times are in EDT time to prevent confusion due to time zone crossing. See the AWE1693 flight status page for this flight to view local times or setup timezone preferences in your user account.

Time Position Orientation Groundspeed Altitude Reporting Facility
EDT Latitude Longitude Course Direction KTS MPH feet Rate Location/Type
08:28AM 42.7631 -73.8089 169° South 148 170 1,400  Level Boston Center
08:29AM 42.7903 -73.8094 359° North 157 181 2,400 1,979 Climbing Boston Center
08:30AM 42.8439 -73.8558 328° Northwest 239 275 4,600 2,571 Climbing Boston Center
08:31AM 42.5160 -74.0551 171° South  Level Estimated
08:31AM 42.8769 -73.8822 330° Northwest 231 266 6,900  Level Boston Center
08:32AM 42.4382 -74.1391 180° South  Level Estimated
08:32AM 42.9344 -73.9347 326° Northwest 231 266 9,900  Level Boston Center
08:33AM 42.3603 -74.2228 170° South  Level Estimated
08:33AM 42.9650 -74.0006 302° West 226 260 11,900  Level Boston Center
08:34AM 42.2824 -74.3064 169° South  Level Estimated
08:34AM 42.9842 -74.1061 284° West 250 288 14,300  Level Boston Center
08:35AM 42.9767 -74.1994 264° West 286 329 16,100 1,550 Climbing Boston Center
08:36AM 42.8828 -74.1997 180° South 247 284 17,400 950 Climbing Boston Center
08:37AM 42.7897 -74.1489 158° South 288 331 18,000 400 Climbing Boston Center
08:38AM 42.6614 -74.1031 165° South 379 436 18,200 850 Climbing Boston Center
08:39AM 42.5367 -74.0772 171° South 422 486 19,700 1,350 Climbing Boston Center
08:40AM 42.4078 -74.0514 172° South 456 525 20,900 1,150 Climbing Boston Center
08:41AM 42.2767 -74.0256 172° South 472 543 22,000 875 Climbing Boston Center
08:42AM 42.1292 -73.9964 172° South 493 567 23,000 958 Climbing Boston Center
08:43AM 41.9669 -73.9647 172° South 498 573 24,300 1,050 Climbing Boston Center
08:44AM 41.8319 -73.9364 171° South 498 573 25,100 1,300 Climbing Boston Center
08:45AM 41.6886 -73.9050 171° South 498 573 26,900 2,150 Climbing Boston Center
08:46AM 41.5617 -73.8772 171° South 487 560 29,400 2,061 Climbing Boston Center
08:47AM 41.4897 -73.8647 173° South 478 550 30,300 1,500 Climbing New York Center
08:48AM 41.3761 -73.9064 195° South 438 504 31,800 1,220 Climbing New York Center
08:49AM 41.2803 -73.9903 213° Southwest 417 480 32,700 1,073 Climbing New York Center
08:50AM 41.1861 -74.0739 214° Southwest 417 480 34,000 1,109 Climbing New York Center
08:51AM 41.0922 -74.1547 213° Southwest 422 486 34,900 756 Climbing New York Center
08:52AM 40.9900 -74.2319 210° Southwest 416 479 35,500 450 Climbing New York Center
08:53AM 40.8917 -74.3147 212° Southwest 421 484 35,800 248 Climbing New York Center
08:54AM 40.7953 -74.4058 216° Southwest 426 490 36,000 100 Climbing New York Center
08:55AM 40.7144 -74.5219 227° Southwest 426 490 36,000  Level New York Center
08:56AM 40.6461 -74.6383 232° Southwest 440 506 36,000  Level New York Center
08:57AM 40.5714 -74.7600 231° Southwest 447 514 36,000  Level New York Center
08:58AM 40.4881 -74.8753 226° Southwest 447 514 36,000  Level New York Center
08:59AM 40.4069 -74.9931 228° Southwest 442 509 36,000  Level New York Center
09:00AM 40.3233 -75.1103 227° Southwest 442 509 36,000  Level New York Center
09:01AM 40.2397 -75.2275 227° Southwest 442 509 36,000  Level New York Center
09:02AM 40.1606 -75.3419 228° Southwest 442 509 36,000  Level New York Center
09:03AM 40.0767 -75.4586 227° Southwest 448 516 36,000  Level New York Center
09:04AM 39.9928 -75.5722 226° Southwest 448 516 36,000  Level New York Center
09:05AM 39.9089 -75.6908 227° Southwest 453 521 36,000  Level New York Center
09:06AM 39.8350 -75.8100 231° Southwest 448 516 36,000  Level New York Center
09:07AM 39.7589 -75.9314 231° Southwest 443 510 36,000  Level New York Center
09:08AM 39.6186 -76.1492 230° Southwest 428 493 36,000  Level Washington Center
09:09AM 39.5431 -76.2669 230° Southwest 428 493 36,000  Level Washington Center
09:10AM 39.4672 -76.3844 230° Southwest 428 493 36,000  Level Washington Center
09:11AM 39.3933 -76.5019 231° Southwest 428 493 36,000  Level Washington Center
09:12AM 39.3050 -76.6322 229° Southwest 428 493 36,000  Level Washington Center
09:13AM 39.2289 -76.7517 231° Southwest 428 493 36,000  Level Washington Center
09:14AM 39.1547 -76.8683 231° Southwest 428 493 36,000  Level Washington Center
09:15AM 39.0803 -76.9875 231° Southwest 428 493 36,000  Level Washington Center
09:16AM 38.9914 -77.0978 224° Southwest 428 493 36,000  Level Washington Center
09:17AM 38.8986 -77.1972 220° Southwest 433 498 36,000  Level Washington Center
09:18AM 38.8075 -77.2967 220° Southwest 438 504 36,000  Level Washington Center
09:19AM 38.7144 -77.3956 220° Southwest 438 504 36,000  Level Washington Center
09:20AM 38.6336 -77.4867 221° Southwest 438 504 36,000  Level Washington Center
09:21AM 38.5444 -77.5853 221° Southwest 438 504 36,000  Level Washington Center
09:22AM 38.4533 -77.6836 220° Southwest 438 504 36,000  Level Washington Center
09:23AM 38.3639 -77.7817 221° Southwest 438 504 36,000  Level Washington Center
09:24AM 38.2744 -77.8769 220° Southwest 438 504 36,000  Level Washington Center
09:25AM 38.1831 -77.9772 221° Southwest 438 504 36,000  Level Washington Center
09:26AM 38.0914 -78.0717 219° Southwest 438 504 36,000  Level Washington Center
09:27AM 38.0039 -78.1664 220° Southwest 438 504 36,000  Level Washington Center
09:28AM 37.9261 -78.2903 232° Southwest 421 484 36,000  Level Washington Center
09:29AM 37.8486 -78.3953 227° Southwest 416 479 36,000  Level Washington Center
09:30AM 37.7731 -78.5053 229° Southwest 416 479 36,000 -908 Level Washington Center
09:31AM 37.6972 -78.6153 229° Southwest 421 484 34,200 -992 Descending Washington Center
09:32AM 37.6258 -78.7147 228° Southwest 427 491 34,000 -99 Descending Washington Center
09:33AM 37.5478 -78.8242 228° Southwest 427 491 34,000 -353 Level Washington Center
09:34AM 37.4719 -78.9283 227° Southwest 427 491 33,300 -857 Descending Washington Center
09:35AM 37.3958 -79.0400 229° Southwest 427 491 32,300 -645 Descending Washington Center
09:36AM 37.3072 -79.1431 223° Southwest 427 491 32,000 -149 Descending Washington Center
09:37AM 37.1936 -79.2419 215° Southwest 451 519 32,000 -149 Level Washington Center
09:38AM 37.0908 -79.3308 215° Southwest 456 525 31,700 -610 Descending Washington Center
09:39AM 36.9900 -79.4222 216° Southwest 456 525 30,800 -966 Descending Washington Center
09:40AM 36.8911 -79.5081 215° Southwest 451 519 29,800 -950 Descending Washington Center
09:41AM 36.7922 -79.5939 215° Southwest 446 513 28,900 -942 Descending Washington Center
09:42AM 36.7083 -79.6675 215° Southwest 433 498 27,900 -934 Descending Washington Center
09:43AM 36.6139 -79.7478 214° Southwest 433 498 27,000 -928 Descending Washington Center
09:44AM 36.5444 -79.8086 215° Southwest 428 493 26,400 -1,188 Descending Atlanta Center
09:45AM 36.4469 -79.8886 213° Southwest 433 498 25,100 -1,800 Descending Atlanta Center
09:46AM 36.3558 -79.9681 215° Southwest 428 493 22,800 -1,550 Descending Atlanta Center
09:47AM 36.2622 -80.0450 214° Southwest 415 478 22,000 -1,000 Descending Atlanta Center
09:48AM 36.1692 -80.1292 216° Southwest 415 478 20,800 -1,550 Descending Atlanta Center
09:49AM 36.0919 -80.1922 213° Southwest 403 464 18,900 -1,650 Descending Atlanta Center
09:50AM 36.0064 -80.2631 214° Southwest 392 451 17,500 -1,800 Descending Atlanta Center
09:51AM 35.9272 -80.3358 217° Southwest 376 433 15,300 -2,082 Descending Atlanta Center
09:52AM 35.8706 -80.3872 216° Southwest 353 406 14,100 -1,600 Descending Atlanta Center
09:52AM 35.8458 -80.4036 208° Southwest 369 425 13,700 -1,082 Descending Atlanta Center
09:53AM 35.7889 -80.4547 216° Southwest 347 399 13,000 -700 Descending Atlanta Center
09:53AM 35.7708 -80.4708 216° Southwest 350 403 13,000 -984 Level Atlanta Center
09:54AM 35.7178 -80.5167 215° Southwest 291 335 12,000 -1,300 Descending Atlanta Center
09:54AM 35.6992 -80.5200 188° South 313 360 11,700 -1,574 Descending Atlanta Center
09:55AM 35.6394 -80.5533 204° Southwest 285 328 10,400 -1,900 Descending Atlanta Center
09:55AM 35.6147 -80.5619 196° South 298 343 9,800 -2,164 Descending Atlanta Center
09:56AM 35.5675 -80.5894 205° Southwest 284 327 8,200 -2,100 Descending Atlanta Center
09:56AM 35.5447 -80.5981 197° South 288 331 7,700 -1,548 Descending Atlanta Center
09:57AM 35.4978 -80.6256 205° Southwest 275 316 6,600 -1,500 Descending Atlanta Center
09:57AM 35.4750 -80.6367 202° Southwest 288 331 6,200 -600 Descending Atlanta Center
09:58AM 35.4258 -80.6644 205° Southwest 260 299 6,000 -200 Descending Atlanta Center
09:58AM 35.4114 -80.6725 204° Southwest 274 315 6,000 -484 Level Atlanta Center
09:59AM 35.3811 -80.7144 228° Southwest 210 242 5,500 -953 Descending Atlanta Center
10:00AM 35.3431 -80.7669 228° Southwest 204 235 4,300 -1,082 Descending Atlanta Center
10:01AM 35.3067 -80.8169 228° Southwest 186 214 3,300 -984 Descending Atlanta Center

Login

Don't have an account? Register now (free) for customized features, flight alerts, and more!